Time;durP1;ratioP1;P1;durP2;ratioP2;P2;SDS_P1;SDS_P2;PMS_P1;PMS_P2;Temp;Humidity;BMP_temperature;BMP_pressure;BME280_temperature;BME280_humidity;BME280_pressure;Samples;Min_cycle;Max_cycle;Signal;HPM_P1;HPM_P2
2023/12/14 00:01:33;;;;;;;41.80;28.73;;;9.20;64.30;;;;;;5085086;28;20549;-86
2023/12/14 00:03:59;;;;;;;40.60;27.67;;;9.20;64.20;;;;;;5085710;28;20203;-85
2023/12/14 00:06:25;;;;;;;37.77;27.20;;;9.20;64.10;;;;;;5061155;28;20214;-85
2023/12/14 00:08:50;;;;;;;40.20;26.90;;;9.30;64.20;;;;;;5083737;28;20213;-86
2023/12/14 00:11:16;;;;;;;37.67;26.70;;;9.20;64.30;;;;;;5068435;28;20184;-84
2023/12/14 00:13:42;;;;;;;38.13;26.87;;;9.20;64.20;;;;;;5086223;28;20234;-86
2023/12/14 00:16:08;;;;;;;35.47;23.60;;;9.20;64.20;;;;;;5075369;28;20188;-86
2023/12/14 00:18:34;;;;;;;35.30;26.43;;;9.20;64.20;;;;;;5059162;28;20185;-86
2023/12/14 00:20:59;;;;;;;39.80;27.50;;;9.20;64.20;;;;;;5082281;28;20215;-87
2023/12/14 00:23:25;;;;;;;37.17;26.13;;;9.20;64.20;;;;;;5051282;28;20193;-85
2023/12/14 00:25:51;;;;;;;33.30;24.53;;;9.20;64.30;;;;;;5083541;28;20181;-86
2023/12/14 00:28:17;;;;;;;37.17;24.53;;;9.20;64.30;;;;;;5075036;28;20188;-87
2023/12/14 00:30:43;;;;;;;35.63;24.73;;;9.20;64.20;;;;;;5059802;28;20281;-85
2023/12/14 00:33:08;;;;;;;32.37;23.87;;;9.20;64.20;;;;;;5055036;28;20165;-85
2023/12/14 00:35:34;;;;;;;35.03;23.80;;;9.20;64.00;;;;;;5052594;28;20189;-85
2023/12/14 00:37:59;;;;;;;33.63;23.93;;;9.30;64.20;;;;;;5052466;28;20624;-87
2023/12/14 00:40:25;;;;;;;32.67;24.00;;;9.20;64.10;;;;;;5062444;28;20279;-86
2023/12/14 00:42:51;;;;;;;34.70;23.87;;;9.20;64.20;;;;;;5076205;28;20189;-85
2023/12/14 00:45:17;;;;;;;35.13;24.40;;;9.30;64.20;;;;;;5058613;28;20308;-85
2023/12/14 00:47:42;;;;;;;36.37;23.40;;;9.20;64.30;;;;;;5072190;28;20181;-85
2023/12/14 00:50:08;;;;;;;35.57;25.07;;;9.20;64.20;;;;;;5080893;28;20662;-86
2023/12/14 00:52:34;;;;;;;38.17;25.37;;;9.10;64.10;;;;;;5055059;28;20193;-87
2023/12/14 00:54:59;;;;;;;36.03;24.70;;;9.10;63.80;;;;;;5067295;28;20264;-86
2023/12/14 00:57:25;;;;;;;36.37;25.30;;;9.20;64.00;;;;;;5075405;28;20224;-87
2023/12/14 00:59:51;;;;;;;34.10;24.40;;;9.10;63.80;;;;;;5086460;28;20280;-85
2023/12/14 01:02:16;;;;;;;37.10;26.43;;;9.20;63.80;;;;;;5067913;28;20173;-86
2023/12/14 01:04:42;;;;;;;36.43;25.93;;;9.00;63.50;;;;;;5070983;28;20178;-87
2023/12/14 01:07:08;;;;;;;35.77;26.20;;;9.00;63.70;;;;;;5064488;28;20180;-85
2023/12/14 01:09:34;;;;;;;39.93;26.60;;;9.00;63.90;;;;;;5086215;28;20228;-88
2023/12/14 01:11:59;;;;;;;40.40;26.93;;;9.00;64.00;;;;;;5055227;28;20180;-85
2023/12/14 01:14:25;;;;;;;40.70;27.97;;;9.10;63.80;;;;;;5051838;28;20184;-86
2023/12/14 01:16:51;;;;;;;37.83;26.23;;;9.20;64.00;;;;;;5057796;28;20177;-88
2023/12/14 01:19:17;;;;;;;39.83;27.33;;;9.00;63.80;;;;;;5067464;28;20216;-85
2023/12/14 01:21:43;;;;;;;39.87;26.93;;;9.00;63.80;;;;;;5081213;28;20186;-87
2023/12/14 01:24:08;;;;;;;40.47;27.30;;;9.10;63.90;;;;;;5054031;28;20181;-84
2023/12/14 01:26:34;;;;;;;40.27;26.90;;;9.10;63.80;;;;;;5067637;28;20541;-86
2023/12/14 01:28:59;;;;;;;37.63;26.17;;;9.10;63.80;;;;;;5073645;28;20206;-85
2023/12/14 01:31:26;;;;;;;39.27;25.77;;;9.10;63.80;;;;;;5066511;28;20189;-85
2023/12/14 01:33:52;;;;;;;36.83;26.50;;;9.10;64.50;;;;;;5080394;28;20185;-87
2023/12/14 01:36:26;;;;;;;38.00;26.27;;;9.20;63.70;;;;;;5053972;28;20189;-86
2023/12/14 01:38:52;;;;;;;41.07;27.70;;;9.00;63.70;;;;;;5070113;28;20280;-87
2023/12/14 01:41:18;;;;;;;34.53;25.13;;;9.10;63.80;;;;;;5088361;28;20169;-86
2023/12/14 01:43:44;;;;;;;36.10;25.47;;;9.10;63.90;;;;;;5078750;28;20242;-86
2023/12/14 01:46:10;;;;;;;36.80;24.37;;;9.00;64.70;;;;;;5076926;28;20293;-86
2023/12/14 01:48:36;;;;;;;36.83;24.97;;;9.00;63.90;;;;;;5072662;28;20263;-86
2023/12/14 01:51:02;;;;;;;37.73;25.73;;;9.00;63.70;;;;;;5055423;28;20314;-85
2023/12/14 01:53:28;;;;;;;38.43;24.57;;;9.00;63.70;;;;;;5071287;28;20188;-86
2023/12/14 01:55:53;;;;;;;35.73;25.80;;;9.10;64.00;;;;;;5081431;28;20609;-88
2023/12/14 01:58:20;;;;;;;39.07;28.13;;;9.00;63.80;;;;;;5085175;28;20693;-85
2023/12/14 02:01:00;;;;;;;39.20;24.93;;;9.00;63.80;;;;;;5079241;28;20214;-88
2023/12/14 02:03:25;;;;;;;40.37;26.30;;;9.00;63.70;;;;;;5081490;28;20189;-84
2023/12/14 02:05:51;;;;;;;35.03;24.83;;;8.90;63.70;;;;;;5068010;28;20215;-88
2023/12/14 02:08:16;;;;;;;34.80;24.10;;;8.90;63.70;;;;;;5087303;28;20169;-86
2023/12/14 02:10:42;;;;;;;37.30;25.00;;;9.00;63.90;;;;;;5074076;28;20241;-86
2023/12/14 02:13:08;;;;;;;34.87;24.70;;;9.00;64.00;;;;;;5058549;28;20205;-84
2023/12/14 02:15:33;;;;;;;35.57;24.10;;;9.00;63.80;;;;;;5056369;28;20617;-86
2023/12/14 02:17:59;;;;;;;35.80;24.93;;;9.00;63.70;;;;;;5088431;28;20181;-86
2023/12/14 02:20:25;;;;;;;36.67;24.07;;;9.10;63.80;;;;;;5070747;28;20633;-88
2023/12/14 02:22:54;;;;;;;32.87;23.17;;;9.00;63.60;;;;;;5073739;28;20658;-87
2023/12/14 02:25:21;;;;;;;35.97;24.90;;;9.00;63.70;;;;;;5058731;28;20260;-88
2023/12/14 02:27:53;;;;;;;36.27;25.10;;;9.00;63.80;;;;;;5083919;28;20182;-85
2023/12/14 02:30:18;;;;;;;33.00;23.07;;;9.00;63.80;;;;;;5090180;28;20209;-86
2023/12/14 02:32:45;;;;;;;34.37;23.43;;;9.00;63.80;;;;;;5073591;28;20180;-88
2023/12/14 02:35:10;;;;;;;32.67;22.70;;;9.00;63.70;;;;;;5055514;28;20198;-88
2023/12/14 02:37:43;;;;;;;37.87;23.87;;;9.10;63.70;;;;;;5064414;28;20186;-86
2023/12/14 02:40:09;;;;;;;35.70;22.83;;;9.00;63.60;;;;;;5062898;28;20671;-88
2023/12/14 02:42:35;;;;;;;37.43;24.13;;;9.00;63.70;;;;;;5084221;28;20182;-87
2023/12/14 02:45:02;;;;;;;37.17;24.83;;;9.00;63.70;;;;;;5061246;28;20238;-87
2023/12/14 02:47:28;;;;;;;32.90;23.23;;;9.00;63.60;;;;;;5086792;28;20225;-82
2023/12/14 02:49:54;;;;;;;36.27;23.80;;;9.10;63.80;;;;;;5075068;28;20220;-87
2023/12/14 02:52:19;;;;;;;34.67;23.40;;;9.00;63.60;;;;;;5061469;28;20181;-87
2023/12/14 02:54:45;;;;;;;36.60;23.67;;;9.00;63.60;;;;;;5078117;28;20193;-88
2023/12/14 02:57:11;;;;;;;41.87;24.70;;;9.00;63.70;;;;;;5087803;28;20233;-86
2023/12/14 02:59:36;;;;;;;37.83;24.30;;;9.10;63.80;;;;;;5070093;28;20184;-85
2023/12/14 03:02:02;;;;;;;39.93;24.90;;;9.00;63.60;;;;;;5084370;28;20656;-85
2023/12/14 03:04:27;;;;;;;39.03;25.23;;;9.00;63.80;;;;;;5067980;28;20239;-86
2023/12/14 03:06:54;;;;;;;38.63;25.13;;;9.00;63.60;;;;;;5088907;28;20867;-86
2023/12/14 03:09:19;;;;;;;43.03;26.40;;;9.00;63.70;;;;;;5065026;28;20208;-85
2023/12/14 03:11:45;;;;;;;44.10;27.23;;;9.00;63.80;;;;;;5073805;28;20181;-87
2023/12/14 03:14:11;;;;;;;43.50;26.37;;;9.00;63.70;;;;;;5069186;28;20654;-86
2023/12/14 03:16:37;;;;;;;45.23;27.00;;;9.00;63.80;;;;;;5084970;28;20189;-84
2023/12/14 03:19:03;;;;;;;48.40;26.93;;;9.00;63.80;;;;;;5082520;28;20194;-86
2023/12/14 03:21:29;;;;;;;42.87;25.73;;;9.00;63.80;;;;;;5085868;28;20183;-85
2023/12/14 03:23:54;;;;;;;47.87;26.63;;;9.10;63.80;;;;;;5053068;28;20653;-87
2023/12/14 03:26:20;;;;;;;46.63;25.97;;;9.00;63.70;;;;;;5085066;28;20197;-86
2023/12/14 03:28:46;;;;;;;45.63;26.97;;;9.00;63.60;;;;;;5069202;28;20304;-86
2023/12/14 03:31:20;;;;;;;48.23;28.63;;;9.00;63.70;;;;;;5066821;28;20657;-87
2023/12/14 03:33:46;;;;;;;46.97;26.23;;;9.00;63.60;;;;;;5061565;28;20239;-86
2023/12/14 03:36:12;;;;;;;45.63;26.50;;;8.90;63.60;;;;;;5054208;28;20182;-85
2023/12/14 03:38:37;;;;;;;44.60;27.10;;;8.90;63.70;;;;;;5073885;28;20188;-85
2023/12/14 03:41:03;;;;;;;48.77;27.73;;;9.00;64.00;;;;;;5085301;28;20185;-86
2023/12/14 03:43:29;;;;;;;43.20;27.53;;;8.90;63.90;;;;;;5077558;28;20273;-85
2023/12/14 03:45:54;;;;;;;48.00;26.87;;;8.90;63.90;;;;;;5061177;28;20177;-85
2023/12/14 03:48:20;;;;;;;48.80;27.07;;;8.90;63.90;;;;;;5054246;28;20211;-85
2023/12/14 03:50:45;;;;;;;46.57;26.37;;;8.90;63.80;;;;;;5079357;28;20227;-87
2023/12/14 03:53:11;;;;;;;45.20;26.80;;;8.90;63.70;;;;;;5071880;28;20195;-86
2023/12/14 03:55:37;;;;;;;44.97;26.97;;;8.90;63.60;;;;;;5082465;28;20193;-88
2023/12/14 03:58:02;;;;;;;47.60;28.00;;;8.90;63.70;;;;;;5069788;28;20300;-86
2023/12/14 04:00:28;;;;;;;45.83;27.93;;;8.90;63.70;;;;;;5054785;28;20591;-86
2023/12/14 04:02:54;;;;;;;46.13;27.17;;;8.90;63.60;;;;;;5071836;28;20178;-86
2023/12/14 04:05:20;;;;;;;46.57;27.97;;;8.90;63.40;;;;;;5059883;28;20174;-86
2023/12/14 04:07:45;;;;;;;47.67;26.77;;;8.90;63.40;;;;;;5067127;28;20203;-86
2023/12/14 04:10:12;;;;;;;50.20;28.30;;;8.90;63.60;;;;;;5085030;28;20213;-87
2023/12/14 04:12:39;;;;;;;48.33;27.97;;;9.00;63.80;;;;;;5054797;28;20193;-85
2023/12/14 04:15:06;;;;;;;46.73;27.23;;;9.10;63.90;;;;;;5069725;28;20177;-87
2023/12/14 04:17:32;;;;;;;45.70;26.57;;;8.90;63.80;;;;;;5068929;28;20209;-87
2023/12/14 04:19:58;;;;;;;43.83;26.63;;;8.90;63.80;;;;;;5069730;28;20204;-88
2023/12/14 04:22:23;;;;;;;39.47;24.60;;;8.90;63.80;;;;;;5071435;28;20192;-85
2023/12/14 04:24:51;;;;;;;40.83;26.33;;;8.90;63.60;;;;;;5085322;28;20188;-87
2023/12/14 04:27:16;;;;;;;39.97;23.87;;;8.90;63.60;;;;;;5069497;28;21063;-86
2023/12/14 04:29:42;;;;;;;42.03;25.27;;;8.90;63.60;;;;;;5072928;28;20197;-85
2023/12/14 04:32:08;;;;;;;42.03;25.73;;;8.90;63.60;;;;;;5059783;28;20181;-86
2023/12/14 04:34:33;;;;;;;40.53;25.10;;;9.10;63.80;;;;;;5061845;28;20259;-85
2023/12/14 04:37:11;;;;;;;40.87;25.80;;;8.90;63.40;;;;;;5071013;28;20193;-87
2023/12/14 04:39:37;;;;;;;42.57;24.90;;;8.90;64.10;;;;;;5064967;28;20549;-86
2023/12/14 04:42:03;;;;;;;38.83;24.10;;;8.90;63.20;;;;;;5051494;28;20174;-85
2023/12/14 04:44:28;;;;;;;37.63;23.47;;;8.90;63.20;;;;;;5075166;28;20177;-86
2023/12/14 04:46:54;;;;;;;38.57;24.07;;;8.90;63.20;;;;;;5076255;28;20221;-85
2023/12/14 04:49:19;;;;;;;44.57;25.20;;;8.80;63.20;;;;;;5060073;28;20216;-85
2023/12/14 04:51:45;;;;;;;41.20;25.17;;;8.80;63.30;;;;;;5082290;28;20232;-86
2023/12/14 04:54:11;;;;;;;37.20;23.27;;;8.90;63.50;;;;;;5069336;28;20212;-84
2023/12/14 04:56:37;;;;;;;37.07;23.70;;;8.80;63.40;;;;;;5083979;28;20227;-86
2023/12/14 04:59:02;;;;;;;35.47;23.13;;;8.80;63.40;;;;;;5085307;28;20237;-87
2023/12/14 05:01:28;;;;;;;37.93;24.40;;;8.90;63.50;;;;;;5069888;28;20634;-87
2023/12/14 05:04:31;;;;;;;35.93;23.17;;;8.80;63.30;;;;;;5075998;28;20192;-86
2023/12/14 05:06:56;;;;;;;39.97;24.50;;;8.80;63.20;;;;;;5067275;28;20189;-87
2023/12/14 05:09:22;;;;;;;39.23;24.07;;;8.90;63.30;;;;;;5053264;28;20217;-87
2023/12/14 05:11:47;;;;;;;38.70;25.33;;;8.90;63.30;;;;;;5057773;28;20588;-87
2023/12/14 05:14:13;;;;;;;39.83;23.93;;;8.80;63.30;;;;;;5058783;28;20193;-87
2023/12/14 05:16:39;;;;;;;41.67;25.63;;;8.80;63.30;;;;;;5064192;28;20239;-86
2023/12/14 05:19:04;;;;;;;43.17;25.20;;;8.80;63.40;;;;;;5067308;28;20193;-85
2023/12/14 05:21:30;;;;;;;42.97;26.10;;;8.80;63.40;;;;;;5085214;28;20529;-87
2023/12/14 05:23:55;;;;;;;39.30;25.03;;;8.80;63.30;;;;;;5065220;28;20181;-87
2023/12/14 05:26:21;;;;;;;38.57;24.27;;;8.90;63.30;;;;;;5067651;28;20187;-86
2023/12/14 05:28:47;;;;;;;44.10;24.60;;;8.80;63.00;;;;;;5060112;28;20209;-85
2023/12/14 05:31:12;;;;;;;39.30;24.40;;;8.80;63.10;;;;;;5067997;28;20181;-84
2023/12/14 05:33:39;;;;;;;39.70;23.77;;;8.80;63.20;;;;;;5070135;28;20181;-88
2023/12/14 05:36:08;;;;;;;44.47;24.33;;;8.80;63.30;;;;;;5068174;28;21395;-85
2023/12/14 05:38:34;;;;;;;40.90;24.43;;;8.80;63.30;;;;;;5071790;28;20190;-87
2023/12/14 05:41:00;;;;;;;41.77;24.40;;;8.90;63.60;;;;;;5071719;28;20191;-84
2023/12/14 05:43:25;;;;;;;38.90;23.70;;;8.80;63.50;;;;;;5070269;28;20181;-86
2023/12/14 05:45:51;;;;;;;40.53;24.97;;;8.90;63.70;;;;;;5074629;28;20243;-88
2023/12/14 05:48:17;;;;;;;43.23;25.03;;;8.80;63.40;;;;;;5073019;28;20658;-88
2023/12/14 05:50:42;;;;;;;46.97;25.33;;;8.80;63.30;;;;;;5086704;28;20316;-86
2023/12/14 05:53:08;;;;;;;44.60;25.40;;;8.80;63.30;;;;;;5074393;28;20177;-86
2023/12/14 05:55:33;;;;;;;41.03;24.43;;;8.80;63.40;;;;;;5073742;28;20207;-84
2023/12/14 05:57:59;;;;;;;45.77;25.37;;;8.80;63.30;;;;;;5071261;28;20236;-86
2023/12/14 06:00:24;;;;;;;42.20;24.30;;;8.90;63.40;;;;;;5085233;28;20185;-86
2023/12/14 06:02:50;;;;;;;50.23;27.07;;;8.80;63.20;;;;;;5071723;28;20169;-86
2023/12/14 06:05:16;;;;;;;46.10;27.37;;;8.80;63.30;;;;;;5072823;28;20269;-86
2023/12/14 06:07:41;;;;;;;42.93;26.27;;;8.80;63.50;;;;;;5072910;28;20253;-86
2023/12/14 06:10:07;;;;;;;45.77;27.27;;;8.80;63.40;;;;;;5072955;28;20230;-85
2023/12/14 06:12:33;;;;;;;44.60;26.93;;;8.80;63.40;;;;;;5071603;28;20194;-86
2023/12/14 06:14:58;;;;;;;45.70;25.40;;;8.80;63.50;;;;;;5086279;28;20177;-87
2023/12/14 06:17:24;;;;;;;47.90;26.90;;;8.80;63.40;;;;;;5085027;28;20212;-86
2023/12/14 06:19:50;;;;;;;48.43;25.60;;;8.90;63.60;;;;;;5079119;28;20189;-87
2023/12/14 06:22:15;;;;;;;45.20;26.83;;;8.80;63.40;;;;;;5060794;28;20173;-87
2023/12/14 06:24:41;;;;;;;44.33;25.57;;;8.90;63.60;;;;;;5055619;28;20193;-84
2023/12/14 06:27:07;;;;;;;41.23;25.80;;;8.80;63.40;;;;;;5069183;28;20169;-85
2023/12/14 06:29:32;;;;;;;44.77;26.63;;;8.80;63.40;;;;;;5072992;28;20232;-85
2023/12/14 06:31:58;;;;;;;42.30;25.90;;;8.80;63.40;;;;;;5081023;28;20189;-87
2023/12/14 06:34:23;;;;;;;46.63;26.47;;;8.90;63.60;;;;;;5059617;28;20303;-86
2023/12/14 06:36:49;;;;;;;46.83;26.77;;;8.80;63.30;;;;;;5072381;28;20656;-85
2023/12/14 06:39:15;;;;;;;48.47;27.10;;;8.80;63.50;;;;;;5069394;28;20391;-85
2023/12/14 06:41:41;;;;;;;45.83;26.33;;;8.80;63.50;;;;;;5075094;28;20545;-86
2023/12/14 06:44:09;;;;;;;50.87;28.07;;;8.80;63.40;;;;;;5063913;28;20211;-84
2023/12/14 06:46:34;;;;;;;52.00;28.17;;;8.90;63.50;;;;;;5063483;28;20185;-85
2023/12/14 06:49:00;;;;;;;49.50;29.00;;;8.80;63.40;;;;;;5064644;28;20209;-86
2023/12/14 06:51:25;;;;;;;53.70;29.57;;;8.80;63.50;;;;;;5072036;28;20630;-86
2023/12/14 06:53:51;;;;;;;50.23;27.63;;;8.80;63.50;;;;;;5072638;28;20214;-84
2023/12/14 06:56:17;;;;;;;49.07;28.37;;;8.80;63.40;;;;;;5055957;28;20269;-86
2023/12/14 06:58:44;;;;;;;49.43;29.63;;;8.80;63.30;;;;;;5062772;28;20233;-85
2023/12/14 07:01:17;;;;;;;53.90;28.60;;;8.80;63.20;;;;;;5071751;28;20178;-85
2023/12/14 07:03:44;;;;;;;50.00;27.30;;;8.80;63.20;;;;;;5067801;28;20253;-86
2023/12/14 07:06:17;;;;;;;50.30;29.40;;;8.80;63.20;;;;;;5051859;28;20197;-86
2023/12/14 07:08:43;;;;;;;48.90;28.30;;;8.80;63.40;;;;;;5055474;28;20184;-85
2023/12/14 07:11:09;;;;;;;50.93;28.67;;;8.80;63.30;;;;;;5058773;28;20226;-85
2023/12/14 07:13:38;;;;;;;45.97;27.73;;;8.90;63.50;;;;;;5056132;28;20548;-83
2023/12/14 07:16:11;;;;;;;49.37;29.40;;;8.80;63.30;;;;;;5054922;28;20188;-85
2023/12/14 07:18:38;;;;;;;47.97;27.53;;;8.80;63.50;;;;;;5057067;28;20173;-84
2023/12/14 07:21:04;;;;;;;48.03;28.57;;;8.80;63.30;;;;;;5052416;28;20256;-87
2023/12/14 07:23:30;;;;;;;46.10;29.70;;;8.80;63.40;;;;;;5056718;28;20710;-84
2023/12/14 07:25:55;;;;;;;51.50;28.80;;;8.80;63.50;;;;;;5057419;28;20205;-85
2023/12/14 07:28:22;;;;;;;49.27;29.37;;;8.80;63.50;;;;;;5058221;28;20186;-86
2023/12/14 07:30:48;;;;;;;42.13;26.03;;;8.80;63.40;;;;;;5059665;28;20236;-85
2023/12/14 07:33:15;;;;;;;47.87;27.80;;;8.80;63.40;;;;;;5054890;28;20448;-85
2023/12/14 07:35:40;;;;;;;41.50;25.80;;;8.80;63.60;;;;;;5050403;28;20213;-84
2023/12/14 07:38:06;;;;;;;44.63;26.67;;;8.80;63.50;;;;;;5056358;28;20209;-86
2023/12/14 07:40:32;;;;;;;39.03;26.53;;;8.80;63.60;;;;;;5053707;28;20193;-85
2023/12/14 07:42:57;;;;;;;48.07;27.07;;;8.80;63.40;;;;;;5056489;28;20185;-85
2023/12/14 07:45:23;;;;;;;46.53;27.10;;;8.80;63.40;;;;;;5058140;28;20641;-85
2023/12/14 07:47:49;;;;;;;45.17;27.30;;;8.90;63.30;;;;;;5058475;28;20201;-84
2023/12/14 07:50:14;;;;;;;44.53;27.03;;;8.80;63.20;;;;;;5053103;28;20296;-85
2023/12/14 07:52:41;;;;;;;45.97;27.13;;;8.80;63.30;;;;;;5058700;28;20691;-86
2023/12/14 07:55:07;;;;;;;41.73;25.27;;;8.80;63.30;;;;;;5058672;28;20206;-85
2023/12/14 07:57:33;;;;;;;38.83;25.50;;;8.80;63.30;;;;;;5057627;28;20177;-85
2023/12/14 07:59:58;;;;;;;37.77;25.30;;;8.80;63.40;;;;;;5055105;28;20581;-84
2023/12/14 08:02:24;;;;;;;42.37;25.87;;;8.80;63.40;;;;;;5066729;28;20198;-85
2023/12/14 08:04:50;;;;;;;43.67;27.07;;;8.80;63.30;;;;;;5055873;28;20215;-85
2023/12/14 08:07:15;;;;;;;40.03;26.23;;;8.90;63.40;;;;;;5054173;28;20200;-84
2023/12/14 08:09:41;;;;;;;39.47;25.07;;;8.80;63.30;;;;;;5055213;28;20217;-85
2023/12/14 08:12:07;;;;;;;41.30;26.23;;;8.80;63.40;;;;;;5061938;28;20572;-85
2023/12/14 08:14:43;;;;;;;40.73;25.00;;;8.80;63.50;;;;;;5057160;28;20208;-86
2023/12/14 08:17:10;;;;;;;38.60;25.03;;;8.80;63.50;;;;;;5059219;28;20217;-86
2023/12/14 08:19:36;;;;;;;39.50;25.60;;;8.80;63.40;;;;;;5065130;28;20224;-85
2023/12/14 08:22:01;;;;;;;39.77;26.17;;;8.80;63.30;;;;;;5048146;28;20214;-85
2023/12/14 08:24:27;;;;;;;39.53;26.07;;;8.80;63.30;;;;;;5057409;28;20637;-86
2023/12/14 08:26:52;;;;;;;42.87;26.33;;;8.90;63.30;;;;;;5051336;28;20193;-85
2023/12/14 08:29:18;;;;;;;42.20;27.07;;;8.80;63.10;;;;;;5055555;28;20220;-85
2023/12/14 08:31:43;;;;;;;50.93;30.57;;;8.80;63.10;;;;;;5061356;28;20238;-86
2023/12/14 08:34:09;;;;;;;52.50;32.43;;;8.90;63.40;;;;;;5058419;28;20193;-85
2023/12/14 08:36:35;;;;;;;55.60;34.27;;;8.80;63.20;;;;;;5058228;28;20220;-86
2023/12/14 08:39:01;;;;;;;62.27;35.37;;;8.80;63.20;;;;;;5054004;28;20550;-86
2023/12/14 08:41:26;;;;;;;68.77;37.77;;;8.80;63.40;;;;;;5054433;28;20698;-86
2023/12/14 08:43:52;;;;;;;62.60;37.37;;;8.80;63.00;;;;;;5055737;28;20193;-85
2023/12/14 08:46:18;;;;;;;66.80;36.73;;;8.80;62.90;;;;;;5058101;28;20181;-85
2023/12/14 08:48:44;;;;;;;77.73;39.43;;;8.70;62.70;;;;;;5074677;28;20177;-85
2023/12/14 08:51:09;;;;;;;67.50;38.00;;;8.70;62.60;;;;;;5052646;28;20240;-86
2023/12/14 08:53:35;;;;;;;72.67;37.10;;;8.60;62.20;;;;;;5051124;28;20715;-85
2023/12/14 08:56:02;;;;;;;68.90;37.97;;;8.70;62.70;;;;;;5056967;28;20180;-84
2023/12/14 08:58:27;;;;;;;69.50;35.90;;;8.60;62.80;;;;;;5059915;28;20255;-85
2023/12/14 09:00:53;;;;;;;53.07;32.00;;;8.60;62.90;;;;;;5056863;28;20686;-85
2023/12/14 09:03:19;;;;;;;59.70;33.33;;;8.60;62.30;;;;;;5056391;28;20239;-85
2023/12/14 09:05:45;;;;;;;56.60;32.50;;;8.50;62.40;;;;;;5056810;28;20196;-84
2023/12/14 09:08:11;;;;;;;55.00;33.10;;;8.50;62.40;;;;;;5052436;28;20254;-85
2023/12/14 09:10:38;;;;;;;50.97;30.33;;;8.50;62.30;;;;;;5070499;28;20251;-85
2023/12/14 09:13:04;;;;;;;48.03;30.23;;;8.50;62.30;;;;;;5059628;28;20212;-83
2023/12/14 09:15:31;;;;;;;45.50;26.10;;;8.50;62.10;;;;;;5055770;28;20236;-85
2023/12/14 09:17:57;;;;;;;43.10;26.90;;;8.40;62.40;;;;;;5054826;28;20186;-84
2023/12/14 09:20:23;;;;;;;42.33;27.07;;;8.50;62.40;;;;;;5056574;28;20250;-85
2023/12/14 09:22:48;;;;;;;48.00;27.47;;;8.40;62.20;;;;;;5058963;28;20225;-85
2023/12/14 09:25:15;;;;;;;44.23;26.43;;;8.50;62.00;;;;;;5049174;28;20216;-85
2023/12/14 09:27:40;;;;;;;49.90;27.93;;;8.30;61.90;;;;;;5054474;28;20622;-85
2023/12/14 09:30:07;;;;;;;47.37;28.07;;;8.30;62.40;;;;;;5073611;28;20235;-85
2023/12/14 09:32:33;;;;;;;51.70;27.77;;;8.30;62.50;;;;;;5059831;28;20188;-85
2023/12/14 09:34:59;;;;;;;46.97;27.57;;;8.40;62.40;;;;;;5054852;28;20189;-86
2023/12/14 09:37:25;;;;;;;47.00;28.10;;;8.30;62.50;;;;;;5056987;28;20230;-85
2023/12/14 09:39:51;;;;;;;50.43;28.20;;;8.40;62.90;;;;;;5056964;28;20185;-84
2023/12/14 09:42:20;;;;;;;50.10;29.67;;;8.50;63.10;;;;;;5054613;28;20188;-84
2023/12/14 09:44:50;;;;;;;59.63;30.60;;;8.40;63.00;;;;;;5060473;28;20207;-85
2023/12/14 09:47:16;;;;;;;49.83;29.27;;;8.50;63.10;;;;;;5053488;28;20239;-85
2023/12/14 09:49:45;;;;;;;54.50;29.27;;;8.50;62.80;;;;;;5056546;28;20209;-85
2023/12/14 09:52:11;;;;;;;56.47;30.23;;;8.40;62.60;;;;;;5056285;28;20633;-87
2023/12/14 09:54:37;;;;;;;54.63;29.53;;;8.50;62.60;;;;;;5056165;28;20188;-86
2023/12/14 09:57:02;;;;;;;53.67;29.80;;;8.40;62.50;;;;;;5057256;28;20192;-87
2023/12/14 09:59:28;;;;;;;54.20;29.40;;;8.40;62.60;;;;;;5054393;28;20229;-87
2023/12/14 10:02:09;;;;;;;50.63;27.63;;;8.60;63.00;;;;;;5055915;28;20189;-86
2023/12/14 10:04:35;;;;;;;49.47;27.47;;;8.40;62.70;;;;;;5054680;28;20783;-86
2023/12/14 10:07:06;;;;;;;49.27;25.13;;;8.40;62.60;;;;;;5054486;28;20178;-85
2023/12/14 10:09:32;;;;;;;48.70;26.20;;;8.40;62.40;;;;;;5072368;28;20212;-85
2023/12/14 10:12:07;;;;;;;50.47;26.57;;;8.50;62.60;;;;;;5071386;28;20636;-86
2023/12/14 10:14:33;;;;;;;46.67;27.13;;;8.40;62.20;;;;;;5058535;28;20188;-86
2023/12/14 10:17:19;;;;;;;48.60;26.67;;;8.30;62.20;;;;;;5058305;28;21460;-86
2023/12/14 10:19:46;;;;;;;50.47;28.20;;;8.40;62.60;;;;;;5057840;28;20185;-86
2023/12/14 10:22:17;;;;;;;46.77;27.93;;;8.30;62.30;;;;;;5057890;28;20174;-85
2023/12/14 10:24:45;;;;;;;56.50;32.87;;;8.30;62.30;;;;;;5058732;28;20184;-85
2023/12/14 10:27:11;;;;;;;68.43;38.03;;;8.30;62.40;;;;;;5060777;28;20181;-85
2023/12/14 10:29:39;;;;;;;60.23;35.20;;;8.30;62.50;;;;;;5058378;28;20618;-84
2023/12/14 10:32:08;;;;;;;54.33;32.50;;;8.30;62.50;;;;;;5060700;28;20238;-86
2023/12/14 10:34:37;;;;;;;54.50;33.00;;;8.40;62.80;;;;;;5059041;28;20189;-85
2023/12/14 10:37:07;;;;;;;62.73;32.53;;;8.40;62.70;;;;;;5061652;28;20179;-86
2023/12/14 10:39:35;;;;;;;48.90;26.67;;;8.30;62.30;;;;;;5075617;28;20645;-83
2023/12/14 10:42:03;;;;;;;55.33;28.80;;;8.30;62.60;;;;;;5058068;28;20196;-84
2023/12/14 10:44:32;;;;;;;41.13;25.37;;;8.30;62.90;;;;;;5060490;28;20639;-85
2023/12/14 10:46:58;;;;;;;42.37;25.27;;;8.30;62.60;;;;;;5058745;28;20583;-86
2023/12/14 10:49:25;;;;;;;44.20;26.60;;;8.30;62.60;;;;;;5059314;28;20209;-86
2023/12/14 10:51:57;;;;;;;49.97;27.63;;;8.30;62.60;;;;;;5061596;28;20181;-86
2023/12/14 10:54:25;;;;;;;48.30;27.00;;;8.30;62.80;;;;;;5059079;28;20641;-85
2023/12/14 10:56:58;;;;;;;57.07;30.40;;;8.30;63.00;;;;;;5060622;28;20195;-86
2023/12/14 10:59:26;;;;;;;50.70;28.37;;;8.50;63.30;;;;;;5074918;28;20240;-85
2023/12/14 11:01:53;;;;;;;48.63;27.70;;;8.40;62.70;;;;;;5055261;28;20216;-85
2023/12/14 11:04:21;;;;;;;50.73;29.43;;;8.40;62.90;;;;;;5061650;28;20196;-86
2023/12/14 11:06:48;;;;;;;53.93;29.67;;;8.50;63.00;;;;;;5059123;28;20169;-85
2023/12/14 11:09:18;;;;;;;50.47;29.13;;;8.60;63.10;;;;;;5055995;28;20615;-86
2023/12/14 11:11:53;;;;;;;50.43;28.20;;;8.40;63.00;;;;;;5059200;28;20243;-84
2023/12/14 11:14:19;;;;;;;45.10;27.97;;;8.50;62.90;;;;;;5057737;28;20185;-84
2023/12/14 11:16:47;;;;;;;42.50;26.57;;;8.40;62.70;;;;;;5057981;28;20343;-84
2023/12/14 11:19:22;;;;;;;45.77;27.60;;;8.40;62.70;;;;;;5056878;28;20197;-86
2023/12/14 11:22:07;;;;;;;42.13;25.53;;;8.40;62.90;;;;;;5058516;28;20271;-87
2023/12/14 11:24:35;;;;;;;50.80;27.33;;;8.50;63.20;;;;;;5044681;28;20219;-86
2023/12/14 11:27:11;;;;;;;44.90;25.80;;;8.40;62.80;;;;;;5059775;28;20185;-87
2023/12/14 11:29:38;;;;;;;42.13;25.63;;;8.40;62.90;;;;;;5058498;28;20218;-85
2023/12/14 11:32:05;;;;;;;41.93;25.17;;;8.50;62.90;;;;;;5056835;28;20986;-85
2023/12/14 11:34:31;;;;;;;40.43;24.83;;;8.40;62.90;;;;;;5059415;28;20208;-85
2023/12/14 11:36:57;;;;;;;38.90;22.90;;;8.40;62.50;;;;;;5057387;28;20263;-86
2023/12/14 11:39:23;;;;;;;37.70;23.27;;;8.40;62.70;;;;;;5075382;28;20193;-85
2023/12/14 11:42:10;;;;;;;40.03;23.83;;;8.50;62.90;;;;;;5073152;28;20193;-86
2023/12/14 11:44:37;;;;;;;43.10;23.47;;;8.40;62.50;;;;;;5062936;28;20185;-86
2023/12/14 11:47:02;;;;;;;37.33;21.57;;;8.40;63.00;;;;;;5055562;28;20192;-85
2023/12/14 11:49:29;;;;;;;35.87;22.03;;;8.40;63.00;;;;;;5057982;28;20733;-85
2023/12/14 11:51:57;;;;;;;30.40;19.70;;;8.40;62.80;;;;;;5060623;28;20185;-85
2023/12/14 11:54:23;;;;;;;32.53;20.27;;;8.50;62.80;;;;;;5074361;28;20185;-85
2023/12/14 11:56:49;;;;;;;38.40;21.63;;;8.40;62.50;;;;;;5056276;28;20208;-84
2023/12/14 11:59:19;;;;;;;39.00;22.83;;;8.50;62.80;;;;;;5057069;28;20268;-86
2023/12/14 12:01:55;;;;;;;34.47;20.50;;;8.40;62.90;;;;;;5053582;28;20220;-84
2023/12/14 12:04:20;;;;;;;36.93;22.10;;;8.50;63.10;;;;;;5059537;28;29185;-86
2023/12/14 12:06:47;;;;;;;35.33;22.23;;;8.50;62.90;;;;;;5055859;28;20713;-86
2023/12/14 12:09:13;;;;;;;43.73;23.27;;;8.60;63.00;;;;;;5054777;28;20324;-84
2023/12/14 12:11:38;;;;;;;44.77;22.67;;;8.60;63.00;;;;;;5052989;28;20941;-86
2023/12/14 12:14:05;;;;;;;44.60;24.67;;;8.50;63.40;;;;;;5053135;28;20190;-84
2023/12/14 12:16:31;;;;;;;43.73;23.80;;;8.50;62.60;;;;;;5055220;28;20216;-86
2023/12/14 12:18:56;;;;;;;41.23;24.03;;;8.40;62.20;;;;;;5057706;28;20646;-84
2023/12/14 12:21:22;;;;;;;39.40;22.27;;;8.40;62.50;;;;;;5054443;28;20232;-84
2023/12/14 12:23:47;;;;;;;38.43;22.43;;;8.40;62.60;;;;;;5058812;28;20282;-86
2023/12/14 12:26:14;;;;;;;36.17;22.03;;;8.40;62.80;;;;;;5059700;28;20185;-86
2023/12/14 12:28:39;;;;;;;36.40;21.20;;;8.40;62.80;;;;;;5060816;28;20277;-86
2023/12/14 12:31:05;;;;;;;36.57;23.07;;;8.50;63.10;;;;;;5056628;28;20296;-86
2023/12/14 12:33:37;;;;;;;34.03;21.07;;;8.40;62.80;;;;;;5060519;28;20246;-87